createdAt,value
2023-02-23T00:00:20.907Z,20.40
2023-02-23T00:03:21.725Z,20.40
2023-02-23T00:06:16.599Z,17.80
2023-02-23T00:09:23.013Z,18.50
2023-02-23T00:12:17.361Z,18.90
2023-02-23T00:15:15.605Z,18.00
2023-02-23T00:18:09.899Z,18.30
2023-02-23T00:21:04.256Z,17.40
2023-02-23T00:24:01.578Z,18.90
2023-02-23T00:26:55.825Z,18.30
2023-02-23T00:29:50.977Z,17.60
2023-02-23T00:32:46.064Z,16.70
2023-02-23T00:35:40.542Z,16.90
2023-02-23T00:38:36.137Z,17.10
2023-02-23T00:41:30.845Z,15.80
2023-02-23T00:44:25.935Z,15.90
2023-02-23T00:47:20.233Z,15.10
2023-02-23T00:50:18.984Z,15.10
2023-02-23T00:53:13.699Z,14.40
2023-02-23T00:56:12.695Z,14.90
2023-02-23T00:59:06.962Z,15.10
2023-02-23T01:02:01.116Z,13.80
2023-02-23T01:04:54.910Z,14.60
2023-02-23T01:07:49.358Z,13.70
2023-02-23T01:10:52.337Z,14.70
2023-02-23T01:13:48.097Z,13.60
2023-02-23T01:16:42.428Z,13.30
2023-02-23T01:19:36.990Z,13.80
2023-02-23T01:22:32.528Z,12.60
2023-02-23T01:25:28.552Z,13.00
2023-02-23T01:28:22.458Z,12.30
2023-02-23T01:31:17.021Z,11.90
2023-02-23T01:34:13.794Z,12.40
2023-02-23T01:37:08.804Z,12.00
2023-02-23T01:40:06.153Z,11.40
2023-02-23T01:43:15.570Z,11.70
2023-02-23T01:46:09.895Z,11.00
2023-02-23T01:49:05.222Z,11.60
2023-02-23T01:52:20.787Z,11.60
2023-02-23T01:55:23.108Z,9.60
2023-02-23T01:58:21.430Z,11.70
2023-02-23T02:01:16.795Z,10.00
2023-02-23T02:04:16.353Z,10.70
2023-02-23T02:07:11.165Z,10.40
2023-02-23T02:10:24.396Z,10.40
2023-02-23T02:13:25.367Z,9.80
2023-02-23T02:17:02.282Z,9.90
2023-02-23T02:20:38.677Z,9.90
2023-02-23T02:24:01.859Z,10.10
2023-02-23T02:27:11.683Z,10.30
2023-02-23T02:30:56.639Z,8.80
2023-02-23T02:34:23.605Z,8.50
2023-02-23T02:37:37.804Z,9.30
2023-02-23T02:40:53.575Z,8.70
2023-02-23T02:43:56.788Z,9.00
2023-02-23T02:46:59.500Z,9.00
2023-02-23T02:50:04.261Z,8.20
2023-02-23T02:53:05.072Z,8.80
2023-02-23T02:56:05.443Z,8.10
2023-02-23T02:58:59.916Z,8.20
2023-02-23T03:02:12.218Z,7.70
2023-02-23T03:05:33.477Z,8.20
2023-02-23T03:08:52.306Z,7.70
2023-02-23T03:12:29.327Z,7.50
2023-02-23T03:15:56.124Z,7.80
2023-02-23T03:19:30.711Z,7.70
2023-02-23T03:22:48.693Z,7.30
2023-02-23T03:26:13.107Z,7.30
2023-02-23T03:29:33.170Z,7.80
2023-02-23T03:32:51.656Z,7.00
2023-02-23T03:36:27.283Z,7.00
2023-02-23T03:39:49.478Z,7.20
2023-02-23T03:43:03.161Z,6.50
2023-02-23T03:46:19.966Z,6.70
2023-02-23T03:49:32.483Z,6.70
2023-02-23T03:52:53.283Z,6.90
2023-02-23T03:56:10.494Z,6.20
2023-02-23T03:59:25.296Z,6.80
2023-02-23T04:02:39.925Z,6.60
2023-02-23T04:05:53.917Z,6.30
2023-02-23T04:09:07.899Z,6.80
2023-02-23T04:12:26.384Z,6.40
2023-02-23T04:15:27.675Z,6.30
2023-02-23T04:18:26.490Z,6.40
2023-02-23T04:21:20.906Z,6.10
2023-02-23T04:24:15.286Z,6.20
2023-02-23T04:27:09.345Z,6.00
2023-02-23T04:30:07.386Z,6.40
2023-02-23T04:33:01.632Z,6.10
2023-02-23T04:35:56.952Z,6.00
2023-02-23T04:38:50.900Z,6.30
2023-02-23T04:41:44.916Z,6.50
2023-02-23T04:44:39.584Z,6.40
2023-02-23T04:47:33.375Z,5.50
2023-02-23T04:50:27.317Z,6.10
2023-02-23T04:53:21.167Z,6.30
2023-02-23T04:56:16.169Z,6.20
2023-02-23T04:59:09.927Z,6.10
2023-02-23T05:02:03.879Z,6.10
2023-02-23T05:04:57.820Z,5.50
2023-02-23T05:07:39.778Z,6.00
2023-02-23T05:10:34.031Z,6.60
2023-02-23T05:13:28.025Z,6.30
2023-02-23T05:16:22.125Z,6.00
2023-02-23T05:19:15.888Z,5.90
2023-02-23T05:22:12.820Z,6.10
2023-02-23T05:25:08.031Z,6.40
2023-02-23T05:28:02.504Z,6.20
2023-02-23T05:30:56.581Z,6.90
2023-02-23T05:33:50.563Z,6.50
2023-02-23T05:36:45.451Z,6.50
2023-02-23T05:39:39.689Z,5.80
2023-02-23T05:42:33.904Z,6.30
2023-02-23T05:45:27.727Z,6.40
2023-02-23T05:48:22.004Z,6.20
2023-02-23T05:51:18.568Z,5.70
2023-02-23T05:54:14.095Z,6.00
2023-02-23T05:57:08.340Z,6.40
2023-02-23T06:00:02.711Z,6.70
2023-02-23T06:02:56.858Z,7.40
2023-02-23T06:05:56.122Z,7.00
2023-02-23T06:08:50.098Z,6.60
2023-02-23T06:11:44.621Z,6.60
2023-02-23T06:14:38.504Z,6.70
2023-02-23T06:17:32.512Z,6.70
2023-02-23T06:20:26.174Z,7.20
2023-02-23T06:23:21.097Z,7.00
2023-02-23T06:26:14.907Z,6.70
2023-02-23T06:29:09.224Z,6.60
2023-02-23T06:32:03.101Z,6.70
2023-02-23T06:34:56.960Z,7.60
2023-02-23T06:37:51.175Z,7.10
2023-02-23T06:40:45.644Z,7.20
2023-02-23T06:43:39.442Z,8.50
2023-02-23T06:46:33.768Z,7.80
2023-02-23T06:49:27.649Z,7.70
2023-02-23T06:52:21.650Z,7.40
2023-02-23T06:55:15.976Z,7.30
2023-02-23T06:58:10.058Z,7.20
2023-02-23T07:01:04.252Z,7.00
2023-02-23T07:03:58.325Z,7.40
2023-02-23T07:06:52.494Z,7.80
2023-02-23T07:09:46.935Z,7.80
2023-02-23T07:12:40.805Z,8.80
2023-02-23T07:15:35.628Z,7.50
2023-02-23T07:18:29.524Z,8.60
2023-02-23T07:21:23.904Z,12.60
2023-02-23T07:24:18.653Z,11.90
2023-02-23T07:27:12.817Z,10.30
2023-02-23T07:30:08.766Z,10.30
2023-02-23T07:33:02.866Z,10.40
2023-02-23T07:35:56.855Z,13.60
2023-02-23T07:38:51.050Z,11.20
2023-02-23T07:41:45.679Z,10.90
2023-02-23T07:44:39.755Z,10.50
2023-02-23T07:47:34.910Z,10.40
2023-02-23T07:50:30.059Z,9.80
2023-02-23T07:53:24.199Z,10.10
2023-02-23T07:56:18.184Z,9.80
2023-02-23T07:59:12.741Z,9.80
2023-02-23T08:02:07.207Z,10.70
2023-02-23T08:05:01.384Z,10.80
2023-02-23T08:07:55.883Z,9.60
2023-02-23T08:10:50.121Z,10.30
2023-02-23T08:13:45.090Z,10.30
2023-02-23T08:16:39.146Z,11.10
2023-02-23T08:19:34.221Z,9.90
2023-02-23T08:22:29.393Z,10.50
2023-02-23T08:25:27.305Z,9.80
2023-02-23T08:28:21.399Z,10.00
2023-02-23T08:31:18.858Z,10.20
2023-02-23T08:34:14.248Z,10.30
2023-02-23T08:37:08.323Z,10.40
2023-02-23T08:40:02.314Z,9.70
2023-02-23T08:42:56.182Z,9.40
2023-02-23T08:45:50.598Z,10.30
2023-02-23T08:48:45.223Z,10.50
2023-02-23T08:51:41.844Z,10.60
2023-02-23T08:54:36.065Z,10.40
2023-02-23T08:57:30.045Z,9.40
2023-02-23T09:00:18.501Z,9.70
2023-02-23T09:03:12.455Z,9.40
2023-02-23T09:06:15.087Z,10.00
2023-02-23T09:09:09.377Z,9.80
2023-02-23T09:12:03.493Z,9.10
2023-02-23T09:14:57.366Z,9.60
2023-02-23T09:17:31.925Z,9.10
2023-02-23T09:20:26.748Z,10.90
2023-02-23T09:23:10.110Z,9.50
2023-02-23T09:26:10.635Z,9.90
2023-02-23T09:29:05.486Z,10.00
2023-02-23T09:31:59.451Z,9.80
2023-02-23T09:34:54.572Z,10.10
2023-02-23T09:37:51.129Z,9.30
2023-02-23T09:40:53.309Z,11.10
2023-02-23T09:43:57.055Z,11.40
2023-02-23T09:47:05.949Z,11.60
2023-02-23T09:50:04.698Z,12.00
2023-02-23T09:53:04.861Z,12.00
2023-02-23T09:56:01.670Z,11.60
2023-02-23T09:58:56.155Z,11.90
2023-02-23T10:02:01.674Z,12.00
2023-02-23T10:05:01.278Z,12.50
2023-02-23T10:08:03.389Z,12.90
2023-02-23T10:11:07.603Z,12.60
2023-02-23T10:14:30.608Z,12.30
2023-02-23T10:17:37.543Z,12.40
2023-02-23T10:20:41.334Z,12.50
2023-02-23T10:23:42.649Z,11.60
2023-02-23T10:26:44.295Z,12.70
2023-02-23T10:29:44.020Z,11.90
2023-02-23T10:32:48.666Z,11.60
2023-02-23T10:35:42.673Z,11.60
2023-02-23T10:38:36.549Z,11.40
2023-02-23T10:41:31.672Z,11.70
2023-02-23T10:44:29.304Z,11.90
2023-02-23T10:47:27.719Z,11.70
2023-02-23T10:50:27.526Z,12.00
2023-02-23T10:53:26.773Z,12.50
2023-02-23T10:56:23.468Z,12.80
2023-02-23T10:59:22.870Z,13.10
2023-02-23T11:02:26.637Z,12.10
2023-02-23T11:05:37.300Z,13.10
2023-02-23T11:08:34.743Z,12.00
2023-02-23T11:11:31.903Z,12.90
2023-02-23T11:14:29.520Z,12.30
2023-02-23T11:17:36.027Z,12.10
2023-02-23T11:20:36.053Z,12.80
2023-02-23T11:23:35.665Z,12.30
2023-02-23T11:26:41.474Z,12.10
2023-02-23T11:29:39.353Z,11.00
2023-02-23T11:32:43.367Z,11.00
2023-02-23T11:35:38.421Z,10.30
2023-02-23T11:38:33.574Z,11.10
2023-02-23T11:41:27.676Z,11.20
2023-02-23T11:44:26.481Z,10.40
2023-02-23T11:47:26.099Z,10.90
2023-02-23T11:50:29.736Z,9.40
2023-02-23T11:53:31.667Z,10.10
2023-02-23T11:56:28.956Z,9.70
2023-02-23T11:59:29.113Z,10.10
2023-02-23T12:02:29.079Z,9.50
2023-02-23T12:05:28.581Z,9.50
2023-02-23T12:08:35.590Z,9.70
2023-02-23T12:11:35.624Z,9.00
2023-02-23T12:14:42.724Z,9.70
2023-02-23T12:17:45.594Z,9.00
2023-02-23T12:20:49.581Z,8.90
2023-02-23T12:24:07.476Z,9.10
2023-02-23T12:27:12.686Z,8.80
2023-02-23T12:30:18.508Z,8.40
2023-02-23T12:33:19.217Z,8.70
2023-02-23T12:36:26.346Z,8.90
2023-02-23T12:39:30.806Z,9.10
2023-02-23T12:42:38.903Z,9.00
2023-02-23T12:45:45.231Z,9.40
2023-02-23T12:48:49.751Z,9.10
2023-02-23T12:51:52.109Z,8.60
2023-02-23T12:54:47.795Z,8.10
2023-02-23T12:57:55.331Z,8.70
2023-02-23T13:01:01.862Z,8.60
2023-02-23T13:04:39.528Z,8.80
2023-02-23T13:07:48.851Z,10.10
2023-02-23T13:10:56.677Z,9.30
2023-02-23T13:14:04.756Z,9.20
2023-02-23T13:17:07.054Z,8.40
2023-02-23T13:20:06.140Z,8.00
2023-02-23T13:23:11.847Z,9.00
2023-02-23T13:26:21.160Z,9.20
2023-02-23T13:29:32.780Z,9.10
2023-02-23T13:32:18.740Z,8.00
2023-02-23T13:35:19.104Z,8.30
2023-02-23T13:38:24.688Z,8.40
2023-02-23T13:41:43.847Z,8.40
2023-02-23T13:44:28.426Z,8.80
2023-02-23T13:47:38.562Z,8.10
2023-02-23T13:50:57.157Z,8.60
2023-02-23T13:54:02.961Z,8.20
2023-02-23T13:57:02.510Z,8.40
2023-02-23T13:59:56.880Z,8.20
2023-02-23T14:02:52.060Z,8.40
2023-02-23T14:05:54.620Z,9.00
2023-02-23T14:09:01.100Z,9.10
2023-02-23T14:12:06.920Z,9.10
2023-02-23T14:15:41.407Z,8.40
2023-02-23T14:18:36.792Z,9.10
2023-02-23T14:21:36.835Z,10.10
2023-02-23T14:24:31.096Z,7.90
2023-02-23T14:27:41.846Z,8.90
2023-02-23T14:30:53.036Z,8.10
2023-02-23T14:34:03.337Z,8.50
2023-02-23T14:36:57.373Z,8.40
2023-02-23T14:39:54.263Z,8.40
2023-02-23T14:42:53.631Z,7.90
2023-02-23T14:45:49.019Z,7.50
2023-02-23T14:48:58.495Z,7.50
2023-02-23T14:51:55.652Z,8.00
2023-02-23T14:54:50.184Z,7.20
2023-02-23T14:57:46.941Z,8.20
2023-02-23T15:00:46.732Z,7.60
2023-02-23T15:03:40.827Z,7.80
2023-02-23T15:06:34.951Z,7.90
2023-02-23T15:09:39.007Z,7.50
2023-02-23T15:12:39.097Z,7.20
2023-02-23T15:15:33.411Z,7.50
2023-02-23T15:18:35.156Z,7.90
2023-02-23T15:21:40.381Z,7.10
2023-02-23T15:24:44.704Z,7.30
2023-02-23T15:27:45.617Z,7.40
2023-02-23T15:30:50.619Z,7.50
2023-02-23T15:33:44.972Z,7.00
2023-02-23T15:36:35.995Z,6.90
2023-02-23T15:39:44.073Z,6.90
2023-02-23T15:42:44.297Z,6.70
2023-02-23T15:45:44.257Z,7.10
2023-02-23T15:48:47.570Z,6.70
2023-02-23T15:51:48.857Z,7.20
2023-02-23T15:54:52.496Z,6.50
2023-02-23T15:58:15.612Z,6.90
2023-02-23T16:01:24.740Z,6.10
2023-02-23T16:04:24.783Z,7.20
2023-02-23T16:07:25.412Z,6.80
2023-02-23T16:10:28.942Z,7.50
2023-02-23T16:13:25.252Z,7.00
2023-02-23T16:16:25.696Z,6.80
2023-02-23T16:19:22.613Z,7.10
2023-02-23T16:22:26.353Z,8.00
2023-02-23T16:25:25.547Z,8.00
2023-02-23T16:28:24.333Z,7.60
2023-02-23T16:31:45.968Z,8.10
2023-02-23T16:34:50.921Z,8.60
2023-02-23T16:38:02.932Z,8.60
2023-02-23T16:40:57.079Z,8.30
2023-02-23T16:43:53.328Z,8.50
2023-02-23T16:47:36.696Z,8.90
2023-02-23T16:50:32.661Z,8.20
2023-02-23T16:53:26.793Z,8.10
2023-02-23T16:56:25.746Z,8.70
2023-02-23T16:59:21.487Z,8.00
2023-02-23T17:02:16.471Z,8.30
2023-02-23T17:05:18.309Z,8.60
2023-02-23T17:08:12.380Z,8.50
2023-02-23T17:11:08.044Z,8.50
2023-02-23T17:14:02.068Z,8.90
2023-02-23T17:16:57.141Z,8.20
2023-02-23T17:19:51.377Z,8.90
2023-02-23T17:22:45.982Z,8.30
2023-02-23T17:25:40.159Z,8.90
2023-02-23T17:28:34.373Z,9.20
2023-02-23T17:31:29.441Z,9.50
2023-02-23T17:34:09.435Z,9.10
2023-02-23T17:37:06.300Z,9.20
2023-02-23T17:40:02.482Z,9.70
2023-02-23T17:42:57.472Z,8.90
2023-02-23T17:45:54.907Z,9.10
2023-02-23T17:48:48.763Z,9.30
2023-02-23T17:51:42.842Z,9.40
2023-02-23T17:54:37.047Z,9.40
2023-02-23T17:57:33.172Z,10.10
2023-02-23T18:00:28.617Z,9.90
2023-02-23T18:03:22.880Z,9.20
2023-02-23T18:06:17.581Z,9.60
2023-02-23T18:09:14.691Z,9.40
2023-02-23T18:12:10.034Z,10.80
2023-02-23T18:15:04.593Z,10.30
2023-02-23T18:17:59.508Z,9.80
2023-02-23T18:20:55.974Z,9.70
2023-02-23T18:23:51.226Z,10.50
2023-02-23T18:26:46.405Z,11.10
2023-02-23T18:29:40.829Z,10.90
2023-02-23T18:32:35.153Z,10.80
2023-02-23T18:35:33.245Z,11.00
2023-02-23T18:38:27.989Z,13.20
2023-02-23T18:41:22.464Z,14.50
2023-02-23T18:44:19.157Z,12.90
2023-02-23T18:47:13.452Z,12.50
2023-02-23T18:50:10.405Z,12.90
2023-02-23T18:53:05.573Z,13.00
2023-02-23T18:56:04.532Z,12.90
2023-02-23T18:59:01.957Z,12.90
2023-02-23T19:01:56.436Z,12.40
2023-02-23T19:04:51.792Z,13.20
2023-02-23T19:07:46.359Z,13.20
2023-02-23T19:10:40.598Z,12.40
2023-02-23T19:13:38.039Z,13.90
2023-02-23T19:16:34.902Z,12.80
2023-02-23T19:19:29.241Z,13.70
2023-02-23T19:22:23.718Z,13.60
2023-02-23T19:25:18.197Z,14.00
2023-02-23T19:28:13.168Z,13.20
2023-02-23T19:31:11.016Z,12.80
2023-02-23T19:34:05.192Z,14.70
2023-02-23T19:36:59.040Z,13.60
2023-02-23T19:39:54.590Z,13.40
2023-02-23T19:42:49.652Z,13.80
2023-02-23T19:45:46.145Z,13.60
2023-02-23T19:48:40.426Z,14.20
2023-02-23T19:51:34.628Z,13.30
2023-02-23T19:54:28.661Z,14.50
2023-02-23T19:57:22.546Z,14.70
2023-02-23T20:00:17.982Z,13.40
2023-02-23T20:03:14.303Z,14.40
2023-02-23T20:06:13.297Z,14.80
2023-02-23T20:09:09.118Z,14.90
2023-02-23T20:12:03.555Z,14.70
2023-02-23T20:14:57.717Z,15.30
2023-02-23T20:17:52.491Z,16.20
2023-02-23T20:20:46.517Z,14.50
2023-02-23T20:23:41.330Z,15.30
2023-02-23T20:26:38.113Z,15.90
2023-02-23T20:29:34.362Z,15.80
2023-02-23T20:32:29.083Z,16.10
2023-02-23T20:35:26.350Z,15.00
2023-02-23T20:38:20.460Z,16.60
2023-02-23T20:41:14.480Z,17.60
2023-02-23T20:44:08.751Z,16.00
2023-02-23T20:47:03.387Z,15.90
2023-02-23T20:49:57.619Z,16.40
2023-02-23T20:52:52.313Z,15.90
2023-02-23T20:55:46.105Z,16.50
2023-02-23T20:58:40.440Z,15.70
2023-02-23T21:01:34.696Z,15.80
2023-02-23T21:04:28.804Z,14.80
2023-02-23T21:07:26.524Z,15.50
2023-02-23T21:10:21.432Z,15.10
2023-02-23T21:13:16.186Z,15.90
2023-02-23T21:16:14.788Z,15.10
2023-02-23T21:19:08.706Z,15.20
2023-02-23T21:22:02.790Z,14.70
2023-02-23T21:24:56.833Z,14.30
2023-02-23T21:27:51.314Z,14.10
2023-02-23T21:30:45.242Z,14.30
2023-02-23T21:33:39.795Z,14.90
2023-02-23T21:36:34.136Z,16.30
2023-02-23T21:39:28.866Z,14.60
2023-02-23T21:45:00.454Z,14.00
2023-02-23T21:47:55.177Z,13.90
2023-02-23T21:50:54.734Z,13.60
2023-02-23T21:53:49.528Z,14.10
2023-02-23T21:56:43.435Z,13.50
2023-02-23T21:59:38.935Z,13.30
2023-02-23T22:02:37.557Z,13.70
2023-02-23T22:05:34.705Z,13.50
2023-02-23T22:08:29.105Z,13.10
2023-02-23T22:11:26.968Z,13.60
2023-02-23T22:14:22.227Z,14.00
2023-02-23T22:17:19.439Z,14.60
2023-02-23T22:20:20.197Z,13.50
2023-02-23T22:23:14.583Z,12.50
2023-02-23T22:26:10.263Z,12.70
2023-02-23T22:29:05.212Z,13.00
2023-02-23T22:31:59.575Z,13.00
2023-02-23T22:34:54.071Z,12.50
2023-02-23T22:37:48.445Z,13.30
2023-02-23T22:40:43.443Z,12.60
2023-02-23T22:43:38.711Z,13.10
2023-02-23T22:46:33.424Z,12.10
2023-02-23T22:49:27.463Z,12.80
2023-02-23T22:52:22.404Z,12.90
2023-02-23T22:55:16.924Z,12.70
2023-02-23T22:58:12.249Z,12.60
2023-02-23T23:01:09.736Z,12.30
2023-02-23T23:04:10.286Z,12.50
2023-02-23T23:07:06.201Z,12.60
2023-02-23T23:10:05.404Z,12.10
2023-02-23T23:12:59.327Z,12.20
2023-02-23T23:15:55.233Z,12.40
2023-02-23T23:18:54.949Z,12.70
2023-02-23T23:21:55.351Z,12.50
2023-02-23T23:24:50.563Z,13.10
2023-02-23T23:27:46.142Z,12.10
2023-02-23T23:30:41.773Z,12.30
2023-02-23T23:33:36.058Z,12.00
2023-02-23T23:36:33.611Z,12.30
2023-02-23T23:39:28.188Z,11.90
2023-02-23T23:42:22.220Z,12.50
2023-02-23T23:45:18.408Z,11.80
2023-02-23T23:48:12.676Z,12.00
2023-02-23T23:51:07.700Z,11.50
2023-02-23T23:54:03.513Z,12.10
2023-02-23T23:57:01.384Z,12.30
2023-02-23T23:59:56.335Z,11.50
